Time;durP1;ratioP1;P1;durP2;ratioP2;P2;SDS_P1;SDS_P2;PMS_P1;PMS_P2;Temp;Humidity;BMP_temperature;BMP_pressure;BME280_temperature;BME280_humidity;BME280_pressure;Samples;Min_cycle;Max_cycle;Signal;HPM_P1;HPM_P2
2021/07/30 00:00:57;;;;;;;6.03;2.63;;;18.90;99.90;;;;;;4118728;28;20050;-73
2021/07/30 00:02:58;;;;;;;5.13;3.00;;;18.90;99.90;;;;;;4119809;28;20046;-73
2021/07/30 00:04:59;;;;;;;5.90;2.80;;;18.90;99.90;;;;;;4138782;28;20041;-73
2021/07/30 00:06:59;;;;;;;5.07;2.50;;;18.90;99.90;;;;;;4134717;28;20076;-73
2021/07/30 00:09:00;;;;;;;4.35;2.45;;;18.90;99.90;;;;;;4118534;28;20516;-73
2021/07/30 00:11:00;;;;;;;4.88;2.60;;;18.90;99.90;;;;;;4132297;28;20046;-73
2021/07/30 00:13:01;;;;;;;5.72;2.83;;;18.90;99.90;;;;;;4118765;28;20074;-73
2021/07/30 00:15:06;;;;;;;6.60;2.75;;;18.90;99.90;;;;;;4119178;28;20046;-73
2021/07/30 00:17:07;;;;;;;5.72;2.92;;;19.00;99.90;;;;;;4136098;28;20038;-73
2021/07/30 00:19:07;;;;;;;7.45;3.05;;;19.00;99.90;;;;;;4143898;28;20474;-73
2021/07/30 00:21:08;;;;;;;5.85;2.92;;;18.90;99.90;;;;;;4118351;28;20035;-73
2021/07/30 00:23:08;;;;;;;5.00;2.70;;;18.90;99.90;;;;;;4141175;28;20038;-73
2021/07/30 00:25:09;;;;;;;6.88;3.15;;;18.90;99.90;;;;;;4132025;28;20034;-73
2021/07/30 00:27:10;;;;;;;6.55;2.90;;;18.90;99.90;;;;;;4136278;28;20038;-73
2021/07/30 00:29:10;;;;;;;5.13;2.88;;;18.90;99.90;;;;;;4117994;28;20046;-73
2021/07/30 00:31:11;;;;;;;5.50;2.83;;;18.90;99.90;;;;;;4133343;28;20121;-73
2021/07/30 00:33:12;;;;;;;6.75;2.85;;;18.90;99.90;;;;;;4138188;28;20080;-73
2021/07/30 00:35:12;;;;;;;7.32;3.05;;;18.90;99.90;;;;;;4117758;28;20053;-73
2021/07/30 00:37:13;;;;;;;6.15;3.08;;;18.90;99.90;;;;;;4117405;28;20031;-73
2021/07/30 00:39:13;;;;;;;4.45;2.70;;;18.90;99.90;;;;;;4136324;28;20046;-73
2021/07/30 00:41:14;;;;;;;9.20;3.17;;;18.90;99.90;;;;;;4135869;28;20128;-73
2021/07/30 00:43:15;;;;;;;5.57;2.80;;;18.90;99.90;;;;;;4135819;28;20029;-73
2021/07/30 00:45:15;;;;;;;6.38;2.97;;;18.80;99.90;;;;;;4133826;28;20069;-73
2021/07/30 00:47:16;;;;;;;4.63;2.63;;;18.80;99.90;;;;;;4134060;28;20030;-73
2021/07/30 00:49:17;;;;;;;4.65;2.65;;;18.80;99.90;;;;;;4139735;28;20038;-73
2021/07/30 00:51:18;;;;;;;4.18;2.75;;;18.80;99.90;;;;;;4140675;28;20045;-73
2021/07/30 00:53:19;;;;;;;7.78;3.58;;;18.70;99.90;;;;;;4136863;28;20054;-73
2021/07/30 00:55:20;;;;;;;6.00;3.05;;;18.70;99.90;;;;;;4140526;28;20482;-73
2021/07/30 00:57:22;;;;;;;6.85;2.83;;;18.60;99.90;;;;;;4131094;28;20046;-73
2021/07/30 00:59:23;;;;;;;6.00;2.90;;;18.60;99.90;;;;;;4141390;28;20033;-73
2021/07/30 01:01:23;;;;;;;6.53;3.22;;;18.60;99.90;;;;;;4136201;28;20154;-73
2021/07/30 01:03:24;;;;;;;7.70;3.22;;;18.50;99.90;;;;;;4131159;28;20049;-73
2021/07/30 01:05:26;;;;;;;4.85;2.70;;;18.50;99.90;;;;;;4139107;28;20041;-73
2021/07/30 01:07:27;;;;;;;10.43;3.30;;;18.50;99.90;;;;;;4135168;28;20040;-73
2021/07/30 01:09:28;;;;;;;5.03;2.95;;;18.50;99.90;;;;;;4119843;28;20533;-73
2021/07/30 01:11:28;;;;;;;5.22;2.80;;;18.50;99.90;;;;;;4134736;28;20157;-73
2021/07/30 01:13:29;;;;;;;4.50;2.80;;;18.50;99.90;;;;;;4139285;28;20034;-73
2021/07/30 01:15:29;;;;;;;7.93;3.17;;;18.50;99.90;;;;;;4115623;28;20497;-73
2021/07/30 01:17:30;;;;;;;5.88;3.17;;;18.50;99.90;;;;;;4133693;28;20026;-73
2021/07/30 01:19:30;;;;;;;6.63;3.17;;;18.50;99.90;;;;;;4138365;28;20395;-73
2021/07/30 01:21:34;;;;;;;8.55;3.63;;;18.50;99.90;;;;;;4137040;28;20022;-73
2021/07/30 01:23:35;;;;;;;5.45;3.08;;;18.60;99.90;;;;;;4141760;28;20073;-73
2021/07/30 01:25:37;;;;;;;5.53;3.20;;;18.60;99.90;;;;;;4137177;28;20556;-73
2021/07/30 01:27:37;;;;;;;5.95;2.67;;;18.60;99.90;;;;;;4131427;28;20390;-73
2021/07/30 01:29:38;;;;;;;6.18;3.20;;;18.60;99.90;;;;;;4136603;28;20061;-73
2021/07/30 01:31:39;;;;;;;8.05;3.35;;;18.60;99.90;;;;;;4141397;28;20087;-73
2021/07/30 01:33:39;;;;;;;8.52;2.88;;;18.60;99.90;;;;;;4117554;28;20037;-73
2021/07/30 01:35:40;;;;;;;8.40;3.42;;;18.60;99.90;;;;;;4141244;28;20041;-73
2021/07/30 01:37:41;;;;;;;5.97;3.40;;;18.60;99.90;;;;;;4130757;28;20022;-73
2021/07/30 01:39:42;;;;;;;5.55;3.08;;;18.60;99.90;;;;;;4121236;28;20076;-73
2021/07/30 01:41:42;;;;;;;6.70;3.20;;;18.50;99.90;;;;;;4132543;28;20033;-73
2021/07/30 01:43:43;;;;;;;7.40;3.50;;;18.60;99.90;;;;;;4135797;28;20062;-73
2021/07/30 01:45:44;;;;;;;8.32;3.15;;;18.60;99.90;;;;;;4133416;28;20045;-73
2021/07/30 01:47:45;;;;;;;8.07;3.35;;;18.50;99.90;;;;;;4131619;28;20034;-73
2021/07/30 01:49:47;;;;;;;6.53;3.38;;;18.50;99.90;;;;;;4128362;28;20022;-73
2021/07/30 01:51:47;;;;;;;6.07;3.47;;;18.50;99.90;;;;;;4136092;28;20030;-73
2021/07/30 01:53:48;;;;;;;4.10;2.78;;;18.50;99.90;;;;;;4134319;28;20530;-73
2021/07/30 01:55:48;;;;;;;6.22;3.25;;;18.50;99.90;;;;;;4117500;28;20714;-73
2021/07/30 01:57:50;;;;;;;7.13;3.88;;;18.50;99.90;;;;;;4128760;28;20095;-73
2021/07/30 01:59:50;;;;;;;8.82;4.00;;;18.50;99.90;;;;;;4127235;28;20037;-73
2021/07/30 02:01:51;;;;;;;7.63;3.40;;;18.50;99.90;;;;;;4127402;28;20045;-73
2021/07/30 02:03:51;;;;;;;5.10;3.03;;;18.50;99.90;;;;;;4111752;28;20065;-73
2021/07/30 02:05:52;;;;;;;7.57;3.40;;;18.50;99.90;;;;;;4122584;28;20154;-73
2021/07/30 02:07:52;;;;;;;5.70;3.00;;;18.50;99.90;;;;;;4106075;28;20039;-73
2021/07/30 02:09:54;;;;;;;5.00;3.22;;;18.50;99.90;;;;;;4138339;28;20429;-73
2021/07/30 02:11:55;;;;;;;7.68;3.25;;;18.50;99.90;;;;;;4134301;28;20457;-73
2021/07/30 02:16:14;;;;;;;8.90;3.28;;;18.50;99.90;;;;;;4132709;28;20057;-73
2021/07/30 02:18:15;;;;;;;6.15;3.10;;;18.50;99.90;;;;;;4118884;28;20030;-73
2021/07/30 02:20:16;;;;;;;7.40;3.40;;;18.50;99.90;;;;;;4132438;28;20539;-73
2021/07/30 02:22:16;;;;;;;6.70;3.63;;;18.50;99.90;;;;;;4132989;28;20471;-73
2021/07/30 02:24:18;;;;;;;7.00;3.63;;;18.40;99.90;;;;;;4116642;28;20081;-73
2021/07/30 02:26:18;;;;;;;5.47;2.72;;;18.50;99.90;;;;;;4132058;28;20125;-73
2021/07/30 02:28:19;;;;;;;5.28;3.55;;;18.40;99.90;;;;;;4122599;28;20038;-73
2021/07/30 02:30:19;;;;;;;7.15;3.65;;;18.40;99.90;;;;;;4129920;28;20034;-73
2021/07/30 02:32:20;;;;;;;7.07;3.42;;;18.40;99.90;;;;;;4132519;28;20033;-73
2021/07/30 02:34:20;;;;;;;7.75;3.47;;;18.40;99.90;;;;;;4133819;28;20042;-73
2021/07/30 02:36:21;;;;;;;5.47;3.65;;;18.40;99.90;;;;;;4133938;28;20053;-72
2021/07/30 02:38:22;;;;;;;7.18;3.40;;;18.40;99.90;;;;;;4130746;28;21596;-73
2021/07/30 02:40:23;;;;;;;8.05;3.78;;;18.40;99.90;;;;;;4131558;28;20533;-73
2021/07/30 02:42:23;;;;;;;5.55;3.42;;;18.40;99.90;;;;;;4115772;28;20035;-73
2021/07/30 02:44:24;;;;;;;4.47;3.28;;;18.30;99.90;;;;;;4132019;28;20038;-73
2021/07/30 02:46:25;;;;;;;7.55;3.65;;;18.30;99.90;;;;;;4118667;28;20039;-73
2021/07/30 02:48:25;;;;;;;8.73;3.85;;;18.30;99.90;;;;;;4134679;28;20117;-72
2021/07/30 02:50:26;;;;;;;8.18;3.42;;;18.30;99.90;;;;;;4134207;28;20041;-73
2021/07/30 02:52:26;;;;;;;11.07;3.90;;;18.30;99.90;;;;;;4138071;28;20030;-73
2021/07/30 02:54:27;;;;;;;7.22;3.47;;;18.20;99.90;;;;;;4129668;28;20030;-74
2021/07/30 02:56:28;;;;;;;5.30;3.17;;;18.30;99.90;;;;;;4103423;28;20519;-73
2021/07/30 02:58:28;;;;;;;8.48;3.50;;;18.30;99.90;;;;;;4134080;28;20036;-72
2021/07/30 03:00:29;;;;;;;6.15;3.30;;;18.30;99.90;;;;;;4133895;28;20046;-73
2021/07/30 03:02:29;;;;;;;6.55;3.33;;;18.30;99.90;;;;;;4139843;28;20065;-73
2021/07/30 03:04:30;;;;;;;5.85;3.35;;;18.20;99.90;;;;;;4132203;28;20078;-73
2021/07/30 03:06:30;;;;;;;6.10;3.03;;;18.20;99.90;;;;;;4134438;28;20030;-73
2021/07/30 03:08:31;;;;;;;6.60;3.40;;;18.20;99.90;;;;;;4132653;28;20030;-73
2021/07/30 03:10:32;;;;;;;10.60;4.05;;;18.20;99.90;;;;;;4136046;28;20093;-73
2021/07/30 03:12:33;;;;;;;4.22;2.83;;;18.20;99.90;;;;;;4133255;28;20042;-73
2021/07/30 03:14:34;;;;;;;7.50;3.67;;;18.20;99.90;;;;;;4137185;28;20030;-73
2021/07/30 03:16:35;;;;;;;6.15;3.42;;;18.20;99.90;;;;;;4142651;28;20046;-73
2021/07/30 03:18:35;;;;;;;7.63;3.15;;;18.20;99.90;;;;;;4121102;28;20022;-73
2021/07/30 03:20:36;;;;;;;6.57;3.33;;;18.20;99.90;;;;;;4139308;28;20042;-73
2021/07/30 03:22:37;;;;;;;6.60;3.38;;;18.20;99.90;;;;;;4133718;28;20035;-73
2021/07/30 03:24:38;;;;;;;4.57;2.92;;;18.20;99.90;;;;;;4100758;28;20519;-73
2021/07/30 03:26:38;;;;;;;6.60;3.40;;;18.20;99.90;;;;;;4112667;28;20033;-73
2021/07/30 03:28:39;;;;;;;8.27;3.60;;;18.10;99.90;;;;;;4138161;28;20038;-73
2021/07/30 03:30:40;;;;;;;6.80;3.30;;;18.10;99.90;;;;;;4129240;28;20045;-73
2021/07/30 03:32:40;;;;;;;5.75;3.53;;;18.10;99.90;;;;;;4114672;28;20113;-72
2021/07/30 03:34:41;;;;;;;8.70;3.42;;;18.10;99.90;;;;;;4134462;28;20490;-73
2021/07/30 03:36:42;;;;;;;6.78;2.95;;;18.10;99.90;;;;;;4141169;28;20041;-73
2021/07/30 03:38:42;;;;;;;5.32;3.08;;;18.10;99.90;;;;;;4132083;28;20033;-73
2021/07/30 03:40:43;;;;;;;5.72;2.90;;;18.10;99.90;;;;;;4114284;28;20027;-73
2021/07/30 03:42:44;;;;;;;4.88;3.10;;;18.10;99.90;;;;;;4134828;28;20477;-73
2021/07/30 03:44:44;;;;;;;4.75;2.75;;;18.10;99.90;;;;;;4099492;28;20039;-73
2021/07/30 03:46:45;;;;;;;5.72;3.00;;;18.10;99.90;;;;;;4132315;28;20039;-73
2021/07/30 03:48:46;;;;;;;5.72;2.95;;;18.20;99.90;;;;;;4111649;28;20042;-73
2021/07/30 03:50:47;;;;;;;4.60;2.83;;;18.20;99.90;;;;;;4134990;28;20214;-73
2021/07/30 03:52:48;;;;;;;6.47;3.45;;;18.20;99.90;;;;;;4134077;28;20046;-73
2021/07/30 03:54:48;;;;;;;7.03;3.13;;;18.20;99.90;;;;;;4116150;28;20030;-73
2021/07/30 03:56:49;;;;;;;3.33;2.65;;;18.20;99.90;;;;;;4135927;28;20501;-73
2021/07/30 03:58:50;;;;;;;6.97;2.78;;;18.20;99.90;;;;;;4118812;28;20037;-72
2021/07/30 04:00:51;;;;;;;4.78;2.72;;;18.30;99.90;;;;;;4136689;28;20117;-73
2021/07/30 04:02:51;;;;;;;6.07;3.30;;;18.30;99.90;;;;;;4136876;28;20630;-73
2021/07/30 04:04:52;;;;;;;6.60;3.20;;;18.30;99.90;;;;;;4119822;28;20038;-73
2021/07/30 04:06:52;;;;;;;7.63;3.30;;;18.30;99.90;;;;;;4118621;28;20101;-73
2021/07/30 04:08:53;;;;;;;10.75;3.97;;;18.30;99.90;;;;;;4138152;28;20060;-72
2021/07/30 04:10:53;;;;;;;8.15;3.63;;;18.20;99.90;;;;;;4136123;28;20507;-73
2021/07/30 04:12:54;;;;;;;7.90;3.88;;;18.30;99.90;;;;;;4135440;28;20113;-73
2021/07/30 04:14:54;;;;;;;8.88;3.75;;;18.30;99.90;;;;;;4134742;28;20485;-73
2021/07/30 04:16:55;;;;;;;8.52;4.28;;;18.20;99.90;;;;;;4137338;28;20026;-73
2021/07/30 04:18:56;;;;;;;9.10;4.32;;;18.20;99.90;;;;;;4122955;28;20478;-73
2021/07/30 04:20:57;;;;;;;8.05;3.70;;;18.20;99.90;;;;;;4135187;28;20097;-73
2021/07/30 04:22:57;;;;;;;6.57;3.88;;;18.30;99.90;;;;;;4135790;28;20034;-73
2021/07/30 04:24:58;;;;;;;6.80;3.33;;;18.20;99.90;;;;;;4119512;28;20100;-73
2021/07/30 04:26:59;;;;;;;7.88;3.90;;;18.20;99.90;;;;;;4135668;28;20084;-73
2021/07/30 04:28:59;;;;;;;11.88;4.20;;;18.20;99.90;;;;;;4118405;28;20107;-73
2021/07/30 04:31:03;;;;;;;6.88;3.78;;;18.20;99.90;;;;;;4119718;28;20125;-73
2021/07/30 04:33:04;;;;;;;7.68;3.40;;;18.10;99.90;;;;;;4135344;28;20054;-73
2021/07/30 04:35:06;;;;;;;6.28;3.47;;;18.10;99.90;;;;;;4137858;28;20046;-73
2021/07/30 04:37:07;;;;;;;5.33;3.23;;;18.00;99.90;;;;;;4138022;28;20057;-73
2021/07/30 04:39:08;;;;;;;8.73;3.53;;;18.00;99.90;;;;;;4120314;28;20371;-73
2021/07/30 04:41:09;;;;;;;6.43;3.50;;;18.00;99.90;;;;;;4135496;28;20034;-73
2021/07/30 04:43:09;;;;;;;5.90;2.88;;;17.90;99.90;;;;;;4117147;28;20043;-73
2021/07/30 04:45:11;;;;;;;9.48;3.30;;;17.90;99.90;;;;;;4123012;28;20089;-72
2021/07/30 04:47:11;;;;;;;6.20;3.33;;;17.80;99.90;;;;;;4139100;28;20041;-73
2021/07/30 04:49:12;;;;;;;7.35;3.20;;;17.70;99.90;;;;;;4131404;28;20039;-73
2021/07/30 04:51:13;;;;;;;7.32;3.38;;;17.70;99.90;;;;;;4111126;28;20034;-73
2021/07/30 04:53:14;;;;;;;7.80;3.17;;;17.70;99.90;;;;;;4134135;28;20026;-73
2021/07/30 04:55:15;;;;;;;6.78;3.10;;;17.60;99.90;;;;;;4136427;28;20614;-73
2021/07/30 04:57:16;;;;;;;8.52;3.72;;;17.60;99.90;;;;;;4134512;28;20046;-73
2021/07/30 04:59:16;;;;;;;6.90;3.10;;;17.60;99.90;;;;;;4131579;28;20622;-73
2021/07/30 05:01:17;;;;;;;8.05;2.90;;;17.50;99.90;;;;;;4129780;28;20037;-73
2021/07/30 05:03:17;;;;;;;8.07;3.40;;;17.50;99.90;;;;;;4136652;28;20079;-73
2021/07/30 05:05:18;;;;;;;7.88;3.53;;;17.50;99.90;;;;;;4136018;28;20666;-73
2021/07/30 05:07:19;;;;;;;6.05;2.97;;;17.50;99.90;;;;;;4136471;28;20046;-73
2021/07/30 05:09:20;;;;;;;7.43;3.42;;;17.50;99.90;;;;;;4117325;28;20041;-73
2021/07/30 05:11:20;;;;;;;9.93;3.60;;;17.50;99.90;;;;;;4126509;28;20069;-73
2021/07/30 05:13:21;;;;;;;6.90;3.65;;;17.50;99.90;;;;;;4128297;28;20041;-73
2021/07/30 05:15:21;;;;;;;7.38;3.10;;;17.50;99.90;;;;;;4135299;28;20049;-73
2021/07/30 05:17:22;;;;;;;6.43;2.70;;;17.50;99.90;;;;;;4131717;28;20044;-73
2021/07/30 05:19:22;;;;;;;6.43;2.80;;;17.50;99.90;;;;;;4127891;28;20053;-73
2021/07/30 05:21:23;;;;;;;11.93;3.13;;;17.50;99.90;;;;;;4133229;28;20100;-73
2021/07/30 05:23:24;;;;;;;6.95;3.00;;;17.50;99.90;;;;;;4124492;28;20149;-73
2021/07/30 05:25:24;;;;;;;6.30;3.05;;;17.50;99.90;;;;;;4127361;28;20112;-73
2021/07/30 05:27:25;;;;;;;8.40;2.67;;;17.50;99.90;;;;;;4135700;28;20038;-73
2021/07/30 05:29:25;;;;;;;7.57;2.83;;;17.50;99.90;;;;;;4127440;28;20120;-73
2021/07/30 05:31:26;;;;;;;7.57;3.03;;;17.50;99.90;;;;;;4141124;28;20030;-73
2021/07/30 05:33:28;;;;;;;7.95;2.88;;;17.60;99.90;;;;;;4133631;28;20049;-73
2021/07/30 05:35:28;;;;;;;5.13;2.97;;;17.60;99.90;;;;;;4134609;28;20890;-73
2021/07/30 05:37:29;;;;;;;7.35;3.00;;;17.60;99.90;;;;;;4130502;28;20050;-72
2021/07/30 05:39:31;;;;;;;8.63;3.50;;;17.60;99.90;;;;;;4133389;28;20038;-73
2021/07/30 05:41:33;;;;;;;9.07;3.10;;;17.50;99.90;;;;;;4097868;28;20043;-73
2021/07/30 05:43:33;;;;;;;8.07;3.15;;;17.60;99.90;;;;;;4127114;28;20411;-73
2021/07/30 05:45:34;;;;;;;6.63;2.90;;;17.50;99.90;;;;;;4117327;28;20158;-74
2021/07/30 05:47:35;;;;;;;6.38;2.50;;;17.60;99.90;;;;;;4117294;28;20515;-73
2021/07/30 05:49:35;;;;;;;4.25;2.75;;;17.60;99.90;;;;;;4115361;28;20424;-72
2021/07/30 05:51:37;;;;;;;4.97;2.90;;;17.60;99.90;;;;;;4117639;28;20039;-72
2021/07/30 05:53:41;;;;;;;5.00;3.10;;;17.60;99.90;;;;;;4132091;28;20042;-72
2021/07/30 05:55:42;;;;;;;5.68;2.80;;;17.60;99.90;;;;;;4134422;28;20054;-72
2021/07/30 05:57:42;;;;;;;5.55;2.85;;;17.60;99.90;;;;;;4135891;28;20063;-72
2021/07/30 05:59:47;;;;;;;10.98;3.25;;;17.70;99.90;;;;;;4134380;28;20041;-73
2021/07/30 06:01:48;;;;;;;6.57;2.58;;;17.70;99.90;;;;;;4114809;28;20046;-73
2021/07/30 06:03:49;;;;;;;4.65;2.20;;;17.70;99.90;;;;;;4136776;28;20026;-73
2021/07/30 06:05:49;;;;;;;5.05;2.75;;;17.80;99.90;;;;;;4134451;28;20532;-73
2021/07/30 06:07:50;;;;;;;4.47;2.80;;;17.90;99.90;;;;;;4100244;28;20039;-73
2021/07/30 06:09:50;;;;;;;5.82;2.80;;;17.90;99.90;;;;;;4133744;28;20122;-73
2021/07/30 06:11:51;;;;;;;10.57;3.38;;;17.90;99.90;;;;;;4128354;28;20037;-72
2021/07/30 06:13:52;;;;;;;4.72;2.00;;;18.00;99.90;;;;;;4133597;28;20054;-73
2021/07/30 06:15:52;;;;;;;6.25;2.70;;;18.00;99.90;;;;;;4116270;28;20035;-73
2021/07/30 06:17:53;;;;;;;5.65;3.10;;;18.10;99.90;;;;;;4130133;28;20041;-72
2021/07/30 06:19:54;;;;;;;6.60;2.70;;;18.20;99.90;;;;;;4129135;28;20050;-73
2021/07/30 06:21:54;;;;;;;6.15;2.75;;;18.40;99.90;;;;;;4136318;28;20433;-73
2021/07/30 06:23:55;;;;;;;6.85;2.60;;;18.70;99.90;;;;;;4124531;28;20060;-73
2021/07/30 06:25:55;;;;;;;10.73;3.10;;;19.00;99.90;;;;;;4117171;28;20122;-73
2021/07/30 06:27:56;;;;;;;7.03;3.08;;;19.20;99.90;;;;;;4109405;28;20054;-73
2021/07/30 06:29:57;;;;;;;4.68;2.28;;;19.50;99.90;;;;;;4116550;28;20036;-73
2021/07/30 06:31:59;;;;;;;4.68;2.15;;;19.70;99.90;;;;;;4134568;28;20034;-72
2021/07/30 06:33:59;;;;;;;3.35;2.00;;;19.90;99.90;;;;;;4136810;28;20720;-73
2021/07/30 06:36:00;;;;;;;8.13;2.47;;;20.20;99.90;;;;;;4116672;28;20042;-73
2021/07/30 06:38:00;;;;;;;6.20;2.08;;;20.30;99.90;;;;;;4133689;28;20038;-73
2021/07/30 06:40:03;;;;;;;4.40;2.30;;;20.40;99.90;;;;;;4131344;28;20038;-73
2021/07/30 06:42:04;;;;;;;;;;;20.50;99.90;;;;;;4129210;28;20031;-73
2021/07/30 06:44:04;;;;;;;9.80;2.58;;;20.40;99.90;;;;;;4133421;28;19920;-73
2021/07/30 06:46:05;;;;;;;5.88;2.50;;;20.40;99.90;;;;;;4132732;28;20044;-73
2021/07/30 06:48:06;;;;;;;4.20;2.20;;;20.30;99.90;;;;;;4097842;28;20034;-73
2021/07/30 06:50:07;;;;;;;5.32;2.00;;;20.30;99.90;;;;;;4132203;28;20079;-73
2021/07/30 06:52:08;;;;;;;6.65;2.00;;;20.20;99.90;;;;;;4131637;28;20034;-73
2021/07/30 06:54:08;;;;;;;5.97;2.15;;;20.20;99.90;;;;;;4134605;28;20041;-73
2021/07/30 06:56:13;;;;;;;4.32;1.90;;;20.10;99.90;;;;;;4131448;28;20510;-73
2021/07/30 06:58:14;;;;;;;5.78;2.35;;;20.00;99.90;;;;;;4113390;28;20055;-73
2021/07/30 07:00:15;;;;;;;5.15;2.00;;;19.90;99.90;;;;;;4133816;28;20034;-73
2021/07/30 07:02:16;;;;;;;8.48;2.40;;;19.80;99.90;;;;;;4116643;28;20038;-73
2021/07/30 07:04:17;;;;;;;6.18;2.00;;;19.70;99.90;;;;;;4134359;28;20130;-72
2021/07/30 07:06:18;;;;;;;5.47;2.13;;;19.70;99.90;;;;;;4116899;28;20062;-73
2021/07/30 07:08:18;;;;;;;5.00;2.55;;;19.70;99.90;;;;;;4134965;28;20046;-73
2021/07/30 07:10:19;;;;;;;3.92;1.90;;;19.70;99.90;;;;;;4133970;28;20030;-72
2021/07/30 07:12:20;;;;;;;10.15;2.38;;;19.70;99.90;;;;;;4132826;28;20575;-72
2021/07/30 07:14:20;;;;;;;3.22;1.98;;;19.70;99.90;;;;;;4131929;28;20042;-73
2021/07/30 07:16:21;;;;;;;3.38;1.95;;;19.70;99.90;;;;;;4111150;28;20113;-72
2021/07/30 07:18:21;;;;;;;7.47;2.63;;;19.70;99.90;;;;;;4129415;28;20471;-73
2021/07/30 07:20:22;;;;;;;7.47;2.22;;;19.70;99.90;;;;;;4116732;28;20039;-73
2021/07/30 07:22:23;;;;;;;4.18;2.10;;;19.70;99.90;;;;;;4118816;28;20169;-73
2021/07/30 07:24:23;;;;;;;4.43;2.00;;;19.70;99.90;;;;;;4133611;28;20042;-72
2021/07/30 07:26:24;;;;;;;5.68;2.03;;;19.80;99.90;;;;;;4133077;28;20041;-73
2021/07/30 07:28:24;;;;;;;5.13;2.20;;;19.80;99.90;;;;;;4128764;28;20034;-72
2021/07/30 07:30:25;;;;;;;6.78;2.53;;;19.90;99.90;;;;;;4135631;28;20041;-73
2021/07/30 07:32:26;;;;;;;5.25;2.13;;;19.80;99.90;;;;;;4113839;28;20039;-72
2021/07/30 07:34:27;;;;;;;6.32;2.20;;;19.80;99.90;;;;;;4116221;28;20637;-73
2021/07/30 07:36:28;;;;;;;4.43;1.90;;;19.80;99.90;;;;;;4136067;28;20045;-73
2021/07/30 07:38:30;;;;;;;6.35;2.28;;;19.80;99.90;;;;;;4115065;28;20047;-73
2021/07/30 07:40:31;;;;;;;5.65;2.70;;;19.90;99.90;;;;;;4118479;28;20098;-72
2021/07/30 07:42:31;;;;;;;9.45;2.90;;;20.00;99.90;;;;;;4133727;28;20124;-73
2021/07/30 07:44:32;;;;;;;7.45;2.95;;;20.00;99.90;;;;;;4136279;28;20034;-73
2021/07/30 07:46:33;;;;;;;7.22;3.00;;;20.10;99.90;;;;;;4119077;28;20063;-73
2021/07/30 07:48:34;;;;;;;7.68;2.38;;;20.10;99.90;;;;;;4121870;28;20472;-73
2021/07/30 07:50:34;;;;;;;4.20;2.03;;;20.20;99.90;;;;;;4121507;28;21611;-73
2021/07/30 07:52:35;;;;;;;5.22;2.60;;;20.20;99.90;;;;;;4138955;28;20037;-73
2021/07/30 07:54:35;;;;;;;6.40;2.40;;;20.30;99.90;;;;;;4120999;28;20039;-73
2021/07/30 07:56:36;;;;;;;5.95;2.20;;;20.40;99.90;;;;;;4128784;28;20057;-73
2021/07/30 07:58:37;;;;;;;5.25;1.95;;;20.40;99.90;;;;;;4113241;28;20027;-74
2021/07/30 08:00:39;;;;;;;3.88;2.00;;;20.50;99.90;;;;;;4141204;28;20144;-73
2021/07/30 08:02:39;;;;;;;5.53;2.05;;;20.50;99.90;;;;;;4140171;28;20034;-74
2021/07/30 08:04:40;;;;;;;5.40;2.13;;;20.60;99.90;;;;;;4121831;28;20048;-74
2021/07/30 08:06:40;;;;;;;5.03;2.30;;;20.60;99.90;;;;;;4139223;28;20046;-73
2021/07/30 08:08:41;;;;;;;4.20;1.95;;;20.70;99.90;;;;;;4137870;28;20046;-73
2021/07/30 08:10:42;;;;;;;3.15;1.80;;;20.70;99.90;;;;;;4134165;28;20121;-73
2021/07/30 08:12:42;;;;;;;3.45;1.80;;;20.80;99.90;;;;;;4137340;28;20032;-72
2021/07/30 08:14:43;;;;;;;6.55;1.80;;;20.90;99.90;;;;;;4118213;28;20500;-73
2021/07/30 08:16:45;;;;;;;2.47;1.70;;;20.90;99.90;;;;;;4136901;28;20033;-73
2021/07/30 08:18:46;;;;;;;4.60;1.83;;;21.00;99.90;;;;;;4137978;28;20034;-73
2021/07/30 08:20:46;;;;;;;2.58;1.73;;;21.00;99.90;;;;;;4134174;28;20065;-72
2021/07/30 08:22:47;;;;;;;3.70;1.88;;;21.00;99.90;;;;;;4121083;28;20023;-72
2021/07/30 08:24:48;;;;;;;2.70;1.70;;;21.10;99.90;;;;;;4122415;28;20031;-72
2021/07/30 08:26:49;;;;;;;5.82;2.22;;;21.20;99.90;;;;;;4121009;28;20446;-73
2021/07/30 08:28:49;;;;;;;6.70;1.92;;;21.20;99.90;;;;;;4134767;28;20537;-73
2021/07/30 08:30:50;;;;;;;6.68;2.00;;;21.30;99.90;;;;;;4139770;28;20351;-73
2021/07/30 08:32:51;;;;;;;3.83;1.90;;;21.30;99.90;;;;;;4131767;28;20034;-73
2021/07/30 08:34:51;;;;;;;3.28;1.85;;;21.30;99.90;;;;;;4141366;28;20038;-73
2021/07/30 08:36:52;;;;;;;3.38;1.52;;;21.40;99.90;;;;;;4141427;28;20101;-73
2021/07/30 08:38:55;;;;;;;6.43;2.00;;;21.40;99.90;;;;;;4136750;28;20513;-73
2021/07/30 08:40:56;;;;;;;4.28;2.28;;;21.50;99.90;;;;;;4115941;28;20015;-73
2021/07/30 08:42:56;;;;;;;6.30;2.08;;;21.60;99.90;;;;;;4135350;28;20045;-73
2021/07/30 08:44:57;;;;;;;3.65;1.85;;;21.60;99.90;;;;;;4116350;28;20050;-72
2021/07/30 08:46:58;;;;;;;3.17;1.83;;;21.70;99.90;;;;;;4132125;28;20566;-73
2021/07/30 08:48:59;;;;;;;3.67;1.50;;;21.70;99.90;;;;;;4133431;28;20034;-72
2021/07/30 08:51:04;;;;;;;2.78;1.80;;;21.70;99.90;;;;;;4132593;28;20038;-72
2021/07/30 08:53:06;;;;;;;3.55;1.90;;;21.70;99.90;;;;;;4133567;28;20503;-73
2021/07/30 08:55:07;;;;;;;2.83;1.45;;;21.80;99.90;;;;;;4134858;28;20510;-72
2021/07/30 08:57:09;;;;;;;3.22;1.63;;;21.90;99.90;;;;;;4118396;28;20027;-73
2021/07/30 08:59:10;;;;;;;3.88;1.85;;;21.90;99.90;;;;;;4135826;28;20030;-72
2021/07/30 09:01:11;;;;;;;9.35;2.05;;;22.00;99.90;;;;;;4119791;28;20129;-72
2021/07/30 09:03:12;;;;;;;3.70;1.90;;;22.10;99.90;;;;;;4138004;28;20039;-73
2021/07/30 09:05:29;;;;;;;3.90;1.60;;;22.10;99.90;;;;;;4137511;28;20030;-72
2021/07/30 09:07:40;;;;;;;2.10;1.30;;;22.10;99.90;;;;;;4135503;28;20450;-72
2021/07/30 09:09:52;;;;;;;3.10;1.48;;;22.30;99.90;;;;;;4136656;28;20073;-72
2021/07/30 09:11:58;;;;;;;3.03;1.38;;;22.40;99.90;;;;;;4136811;28;20056;-72
2021/07/30 09:14:01;;;;;;;5.15;1.38;;;22.50;99.90;;;;;;4112336;28;20026;-72
2021/07/30 09:16:03;;;;;;;4.95;2.08;;;22.50;99.90;;;;;;4126647;28;20117;-73
2021/07/30 09:18:04;;;;;;;5.22;1.58;;;22.60;99.90;;;;;;4133936;28;20048;-73
2021/07/30 09:20:05;;;;;;;2.30;1.40;;;22.70;99.90;;;;;;4128340;28;20039;-73
2021/07/30 09:22:08;;;;;;;3.42;1.45;;;22.70;99.90;;;;;;4132574;28;20048;-72
2021/07/30 09:24:10;;;;;;;5.78;1.50;;;22.80;99.90;;;;;;4134709;28;20122;-73
2021/07/30 09:26:32;;;;;;;5.47;1.77;;;22.80;99.90;;;;;;4138118;28;20046;-73
2021/07/30 09:28:33;;;;;;;3.63;1.60;;;22.90;99.90;;;;;;4131412;28;20034;-72
2021/07/30 09:30:34;;;;;;;4.80;1.33;;;23.00;99.90;;;;;;4133825;28;20126;-73
2021/07/30 09:32:35;;;;;;;4.15;1.55;;;23.10;99.90;;;;;;4104670;28;20129;-72
2021/07/30 09:34:37;;;;;;;2.35;1.40;;;23.10;99.90;;;;;;4135081;28;20026;-73
2021/07/30 09:37:05;;;;;;;4.18;1.90;;;23.20;99.90;;;;;;4133008;28;20026;-73
2021/07/30 09:39:05;;;;;;;5.50;1.52;;;23.30;99.90;;;;;;4123180;28;20038;-72
2021/07/30 09:41:13;;;;;;;4.90;1.70;;;23.40;99.90;;;;;;4134569;28;20036;-72
2021/07/30 09:43:24;;;;;;;3.67;1.98;;;23.40;99.90;;;;;;4136203;28;20093;-73
2021/07/30 09:45:32;;;;;;;2.50;1.50;;;23.40;99.90;;;;;;4131246;28;20867;-73
2021/07/30 09:47:35;;;;;;;2.28;1.50;;;23.40;99.90;;;;;;4129552;28;20589;-72
2021/07/30 09:49:45;;;;;;;3.60;1.60;;;23.50;99.90;;;;;;4132068;28;20109;-72
2021/07/30 09:51:46;;;;;;;4.75;1.92;;;23.70;99.90;;;;;;4116439;28;20063;-73
2021/07/30 09:53:47;;;;;;;4.38;1.35;;;23.70;99.90;;;;;;4133331;28;20034;-73
2021/07/30 09:55:48;;;;;;;4.47;2.00;;;23.80;99.90;;;;;;4132850;28;20044;-73
2021/07/30 09:57:51;;;;;;;2.60;1.50;;;23.90;99.90;;;;;;4131732;28;20387;-73
2021/07/30 09:59:59;;;;;;;3.75;2.00;;;23.90;99.80;;;;;;4131348;28;20038;-73
2021/07/30 10:02:00;;;;;;;3.75;1.98;;;23.90;98.80;;;;;;4133726;28;20101;-72
2021/07/30 10:04:02;;;;;;;7.68;1.45;;;23.80;99.90;;;;;;4116716;28;20073;-73
2021/07/30 10:06:03;;;;;;;5.47;2.07;;;23.80;99.90;;;;;;4119255;28;20042;-73
2021/07/30 10:08:06;;;;;;;3.05;1.60;;;23.80;99.70;;;;;;4131619;28;20042;-73
2021/07/30 10:10:12;;;;;;;2.03;1.20;;;23.80;98.90;;;;;;4132633;28;20030;-73
2021/07/30 10:12:13;;;;;;;2.85;1.85;;;23.80;99.30;;;;;;4121334;28;20687;-72
2021/07/30 10:14:14;;;;;;;2.38;1.50;;;23.80;99.70;;;;;;4131252;28;20048;-72
2021/07/30 10:16:20;;;;;;;2.97;1.33;;;23.80;99.90;;;;;;4101256;28;20130;-73
2021/07/30 10:18:21;;;;;;;4.50;1.60;;;23.90;99.90;;;;;;4113297;28;20047;-72
2021/07/30 10:20:23;;;;;;;2.20;1.20;;;23.80;98.90;;;;;;4133326;28;20116;-73
2021/07/30 10:22:25;;;;;;;3.80;1.55;;;23.80;99.90;;;;;;4117197;28;20042;-72
2021/07/30 10:24:32;;;;;;;2.90;1.83;;;23.80;99.10;;;;;;4097894;28;20046;-72
2021/07/30 10:26:32;;;;;;;3.00;1.60;;;23.70;98.90;;;;;;4120227;28;20686;-72
2021/07/30 10:28:34;;;;;;;2.60;1.60;;;23.80;99.10;;;;;;4136926;28;20062;-72
2021/07/30 10:30:55;;;;;;;2.55;1.70;;;23.80;99.10;;;;;;4134793;28;20046;-73
2021/07/30 10:33:01;;;;;;;3.33;1.90;;;23.70;99.10;;;;;;4136559;28;20408;-72
2021/07/30 10:35:02;;;;;;;3.20;1.58;;;23.80;99.30;;;;;;4134339;28;20038;-72